createdAt,value
2022-12-03T00:02:07.392Z,8.75
2022-12-03T00:04:34.200Z,8.48
2022-12-03T00:07:00.822Z,7.47
2022-12-03T00:09:27.448Z,9.13
2022-12-03T00:11:54.071Z,8.45
2022-12-03T00:14:20.648Z,8.85
2022-12-03T00:16:47.435Z,7.65
2022-12-03T00:19:14.058Z,8.30
2022-12-03T00:21:40.658Z,7.90
2022-12-03T00:24:07.710Z,8.60
2022-12-03T00:26:34.304Z,8.68
2022-12-03T00:29:00.889Z,9.30
2022-12-03T00:31:27.873Z,8.00
2022-12-03T00:33:54.577Z,7.95
2022-12-03T00:36:21.245Z,8.02
2022-12-03T00:38:48.066Z,7.95
2022-12-03T00:41:14.701Z,8.35
2022-12-03T00:43:41.337Z,8.93
2022-12-03T00:46:08.017Z,8.13
2022-12-03T00:48:34.696Z,8.52
2022-12-03T00:51:01.410Z,7.97
2022-12-03T00:53:28.172Z,8.35
2022-12-03T00:55:54.830Z,8.35
2022-12-03T00:58:21.481Z,8.65
2022-12-03T01:00:48.099Z,8.57
2022-12-03T01:03:14.668Z,8.63
2022-12-03T01:05:41.276Z,8.38
2022-12-03T01:08:08.768Z,8.40
2022-12-03T01:10:35.477Z,8.15
2022-12-03T01:13:02.072Z,7.60
2022-12-03T01:15:28.676Z,7.70
2022-12-03T01:17:55.248Z,8.20
2022-12-03T01:20:21.955Z,8.73
2022-12-03T01:22:48.592Z,7.65
2022-12-03T01:25:15.577Z,7.88
2022-12-03T01:27:42.359Z,9.02
2022-12-03T01:30:11.035Z,8.65
2022-12-03T01:32:37.674Z,9.38
2022-12-03T01:35:04.890Z,7.75
2022-12-03T01:37:31.505Z,8.52
2022-12-03T01:39:58.164Z,7.85
2022-12-03T01:42:28.866Z,8.65
2022-12-03T01:44:58.335Z,8.68
2022-12-03T01:47:34.988Z,8.05
2022-12-03T01:50:04.080Z,9.23
2022-12-03T01:52:34.199Z,8.60
2022-12-03T01:55:04.197Z,9.25
2022-12-03T01:57:40.699Z,9.18
2022-12-03T02:00:12.668Z,9.95
2022-12-03T02:02:39.420Z,8.52
2022-12-03T02:05:17.912Z,9.63
2022-12-03T02:07:44.596Z,9.23
2022-12-03T02:10:13.945Z,8.45
2022-12-03T02:12:58.716Z,8.55
2022-12-03T02:15:25.624Z,8.68
2022-12-03T02:17:53.292Z,8.38
2022-12-03T02:20:20.313Z,8.90
2022-12-03T02:23:08.535Z,10.10
2022-12-03T02:25:36.632Z,8.95
2022-12-03T02:28:05.085Z,8.88
2022-12-03T02:30:32.326Z,10.07
2022-12-03T02:32:59.630Z,9.57
2022-12-03T02:35:30.284Z,9.20
2022-12-03T02:38:02.093Z,10.30
2022-12-03T02:40:32.324Z,10.63
2022-12-03T02:43:01.460Z,8.30
2022-12-03T02:45:35.144Z,9.70
2022-12-03T02:48:15.389Z,9.38
2022-12-03T02:50:48.121Z,10.23
2022-12-03T02:53:20.248Z,11.05
2022-12-03T02:55:48.278Z,11.55
2022-12-03T02:58:15.566Z,10.15
2022-12-03T03:00:43.858Z,10.35
2022-12-03T03:03:10.864Z,11.00
2022-12-03T03:05:40.025Z,10.63
2022-12-03T03:08:08.725Z,10.43
2022-12-03T03:10:38.455Z,10.23
2022-12-03T03:13:10.148Z,11.93
2022-12-03T03:15:41.545Z,11.82
2022-12-03T03:18:09.223Z,10.65
2022-12-03T03:20:37.089Z,11.40
2022-12-03T03:23:14.659Z,11.25
2022-12-03T03:25:47.625Z,11.40
2022-12-03T03:28:15.354Z,12.10
2022-12-03T03:30:43.476Z,12.35
2022-12-03T03:33:12.402Z,11.15
2022-12-03T03:35:39.711Z,13.02
2022-12-03T03:38:07.912Z,11.55
2022-12-03T03:40:34.787Z,11.43
2022-12-03T03:43:01.637Z,12.60
2022-12-03T03:45:29.577Z,11.60
2022-12-03T03:47:59.881Z,13.73
2022-12-03T03:50:29.247Z,11.80
2022-12-03T03:52:56.644Z,11.95
2022-12-03T03:55:23.645Z,13.05
2022-12-03T03:57:50.505Z,12.38
2022-12-03T04:00:17.540Z,12.98
2022-12-03T04:02:44.440Z,11.23
2022-12-03T04:05:18.952Z,13.32
2022-12-03T04:07:45.873Z,12.15
2022-12-03T04:10:32.904Z,12.35
2022-12-03T04:13:00.375Z,12.70
2022-12-03T04:15:27.763Z,12.02
2022-12-03T04:18:26.440Z,12.23
2022-12-03T04:21:13.014Z,12.40
2022-12-03T04:23:39.847Z,12.48
2022-12-03T04:26:25.256Z,13.65
2022-12-03T04:28:51.870Z,11.65
2022-12-03T04:31:36.985Z,12.05
2022-12-03T04:34:22.463Z,12.68
2022-12-03T04:36:49.267Z,10.68
2022-12-03T04:39:16.143Z,10.80
2022-12-03T04:41:42.761Z,11.20
2022-12-03T04:44:27.980Z,12.07
2022-12-03T04:46:54.576Z,12.13
2022-12-03T04:49:21.484Z,11.00
2022-12-03T04:51:48.169Z,9.70
2022-12-03T04:54:14.919Z,12.18
2022-12-03T04:56:41.675Z,11.55
2022-12-03T04:59:15.818Z,11.60
2022-12-03T05:01:43.606Z,11.82
2022-12-03T05:04:10.857Z,12.02
2022-12-03T05:06:37.687Z,12.25
2022-12-03T05:09:04.705Z,11.63
2022-12-03T05:11:31.375Z,11.90
2022-12-03T05:13:58.107Z,11.48
2022-12-03T05:16:24.858Z,12.02
2022-12-03T05:18:51.487Z,10.57
2022-12-03T05:21:18.104Z,11.73
2022-12-03T05:23:44.838Z,11.55
2022-12-03T05:26:11.532Z,11.35
2022-12-03T05:28:38.187Z,10.50
2022-12-03T05:31:05.086Z,9.50
2022-12-03T05:33:31.998Z,11.40
2022-12-03T05:35:58.734Z,10.82
2022-12-03T05:38:25.343Z,9.57
2022-12-03T05:40:51.971Z,9.55
2022-12-03T05:43:18.617Z,9.60
2022-12-03T05:45:45.361Z,9.60
2022-12-03T05:48:16.603Z,10.18
2022-12-03T05:50:45.058Z,9.27
2022-12-03T05:53:15.927Z,10.23
2022-12-03T05:55:42.734Z,11.02
2022-12-03T05:58:09.469Z,9.73
2022-12-03T06:00:42.473Z,9.30
2022-12-03T06:03:10.666Z,9.73
2022-12-03T06:05:37.587Z,9.02
2022-12-03T06:08:04.739Z,9.18
2022-12-03T06:10:32.402Z,10.40
2022-12-03T06:12:59.061Z,9.52
2022-12-03T06:15:25.676Z,8.57
2022-12-03T06:17:52.411Z,10.20
2022-12-03T06:20:20.684Z,9.38
2022-12-03T06:22:47.739Z,8.77
2022-12-03T06:25:15.619Z,9.40
2022-12-03T06:27:42.459Z,9.57
2022-12-03T06:30:12.464Z,10.60
2022-12-03T06:32:39.085Z,10.57
2022-12-03T06:35:05.921Z,9.40
2022-12-03T06:37:32.565Z,9.43
2022-12-03T06:39:59.173Z,8.73
2022-12-03T06:42:25.789Z,9.50
2022-12-03T06:44:52.868Z,9.27
2022-12-03T06:47:20.135Z,9.13
2022-12-03T06:49:46.903Z,8.52
2022-12-03T06:52:13.532Z,9.88
2022-12-03T06:54:40.131Z,9.48
2022-12-03T06:57:06.785Z,8.23
2022-12-03T06:59:35.666Z,8.50
2022-12-03T07:02:02.387Z,9.20
2022-12-03T07:04:29.104Z,7.97
2022-12-03T07:06:55.723Z,9.18
2022-12-03T07:09:22.382Z,10.48
2022-12-03T07:11:49.017Z,8.65
2022-12-03T07:14:15.681Z,9.02
2022-12-03T07:16:43.694Z,8.50
2022-12-03T07:19:11.480Z,8.88
2022-12-03T07:21:38.319Z,10.48
2022-12-03T07:24:05.586Z,10.10
2022-12-03T07:26:32.293Z,9.07
2022-12-03T07:28:59.089Z,9.18
2022-12-03T07:31:25.755Z,9.25
2022-12-03T07:33:52.524Z,8.50
2022-12-03T07:36:19.189Z,8.68
2022-12-03T07:38:45.921Z,9.35
2022-12-03T07:41:12.619Z,9.88
2022-12-03T07:43:39.255Z,10.13
2022-12-03T07:46:05.976Z,8.68
2022-12-03T07:48:32.670Z,10.32
2022-12-03T07:50:59.283Z,9.55
2022-12-03T07:53:25.899Z,9.82
2022-12-03T07:55:52.524Z,9.60
2022-12-03T07:58:19.194Z,9.75
2022-12-03T08:00:45.893Z,9.30
2022-12-03T08:03:12.581Z,11.05
2022-12-03T08:05:39.193Z,8.90
2022-12-03T08:08:06.096Z,9.95
2022-12-03T08:10:32.899Z,10.43
2022-12-03T08:13:00.117Z,9.60
2022-12-03T08:15:32.462Z,8.77
2022-12-03T08:18:18.060Z,10.32
2022-12-03T08:20:46.464Z,8.98
2022-12-03T08:23:19.458Z,9.90
2022-12-03T08:25:46.645Z,9.85
2022-12-03T08:28:19.269Z,9.13
2022-12-03T08:30:58.964Z,9.23
2022-12-03T08:33:35.355Z,9.48
2022-12-03T08:36:12.414Z,9.00
2022-12-03T08:38:40.992Z,8.93
2022-12-03T08:41:14.322Z,9.05
2022-12-03T08:43:43.651Z,8.60
2022-12-03T08:46:19.270Z,10.15
2022-12-03T08:48:49.040Z,8.98
2022-12-03T08:51:24.925Z,9.25
2022-12-03T08:54:01.555Z,9.52
2022-12-03T08:56:31.863Z,9.00
2022-12-03T08:59:00.536Z,9.20
2022-12-03T09:01:53.619Z,8.52
2022-12-03T09:04:39.004Z,10.98
2022-12-03T09:07:05.827Z,8.38
2022-12-03T09:09:33.608Z,9.90
2022-12-03T09:12:01.973Z,9.75
2022-12-03T09:14:28.868Z,8.70
2022-12-03T09:16:56.401Z,9.65
2022-12-03T09:19:25.376Z,10.10
2022-12-03T09:21:52.918Z,8.93
2022-12-03T09:24:20.279Z,9.00
2022-12-03T09:26:47.063Z,9.10
2022-12-03T09:29:13.727Z,8.75
2022-12-03T09:31:40.889Z,9.20
2022-12-03T09:34:07.991Z,9.23
2022-12-03T09:36:34.688Z,8.63
2022-12-03T09:39:01.334Z,8.35
2022-12-03T09:41:28.504Z,9.52
2022-12-03T09:44:04.785Z,8.73
2022-12-03T09:46:33.951Z,8.77
2022-12-03T09:49:01.184Z,9.00
2022-12-03T09:51:34.597Z,9.70
2022-12-03T09:54:04.501Z,9.55
2022-12-03T09:56:31.788Z,9.75
2022-12-03T09:58:58.935Z,9.52
2022-12-03T10:01:29.907Z,9.98
2022-12-03T10:03:58.132Z,9.38
2022-12-03T10:06:25.066Z,9.68
2022-12-03T10:08:54.637Z,9.55
2022-12-03T10:11:24.283Z,8.98
2022-12-03T10:13:53.315Z,9.32
2022-12-03T10:16:21.443Z,9.65
2022-12-03T10:18:55.468Z,8.30
2022-12-03T10:21:34.527Z,8.75
2022-12-03T10:24:21.243Z,8.30
2022-12-03T10:26:49.617Z,9.23
2022-12-03T10:29:33.248Z,9.65
2022-12-03T10:32:18.766Z,10.45
2022-12-03T10:34:46.980Z,9.48
2022-12-03T10:37:21.310Z,9.45
2022-12-03T10:40:01.188Z,10.20
2022-12-03T10:42:31.879Z,9.10
2022-12-03T10:45:20.435Z,9.90
2022-12-03T10:48:04.430Z,9.48
2022-12-03T10:50:32.319Z,9.90
2022-12-03T10:52:59.119Z,9.60
2022-12-03T10:55:27.187Z,10.40
2022-12-03T10:57:53.884Z,8.98
2022-12-03T11:00:20.915Z,12.68
2022-12-03T11:02:54.859Z,10.20
2022-12-03T11:05:29.309Z,9.70
2022-12-03T11:07:56.691Z,11.15
2022-12-03T11:10:23.801Z,10.15
2022-12-03T11:13:27.783Z,10.52
2022-12-03T11:15:54.720Z,9.57
2022-12-03T11:18:36.104Z,9.43
2022-12-03T11:21:13.771Z,10.02
2022-12-03T11:23:46.474Z,9.95
2022-12-03T11:26:18.891Z,10.43
2022-12-03T11:28:46.253Z,10.65
2022-12-03T11:31:42.484Z,9.93
2022-12-03T11:34:18.393Z,10.75
2022-12-03T11:37:09.807Z,9.57
2022-12-03T11:39:51.752Z,10.45
2022-12-03T11:42:27.711Z,12.57
2022-12-03T11:45:08.264Z,10.50
2022-12-03T11:47:44.557Z,11.77
2022-12-03T11:50:22.828Z,12.50
2022-12-03T11:52:55.436Z,10.75
2022-12-03T11:55:37.693Z,12.27
2022-12-03T11:58:28.647Z,9.93
2022-12-03T12:00:57.785Z,12.35
2022-12-03T12:03:33.124Z,14.55
2022-12-03T12:06:04.515Z,11.30
2022-12-03T12:08:32.299Z,11.23
2022-12-03T12:10:59.756Z,11.27
2022-12-03T12:13:32.506Z,12.47
2022-12-03T12:16:04.937Z,12.05
2022-12-03T12:18:38.613Z,12.38
2022-12-03T12:21:56.917Z,12.23
2022-12-03T12:24:36.211Z,12.80
2022-12-03T12:27:09.406Z,12.65
2022-12-03T12:29:38.235Z,11.53
2022-12-03T12:32:12.939Z,13.65
2022-12-03T12:34:41.143Z,12.77
2022-12-03T12:37:26.826Z,12.80
2022-12-03T12:39:56.924Z,12.90
2022-12-03T12:42:38.266Z,11.45
2022-12-03T12:45:07.655Z,13.05
2022-12-03T12:47:35.771Z,14.45
2022-12-03T12:50:10.755Z,13.63
2022-12-03T12:53:02.608Z,13.45
2022-12-03T12:55:29.212Z,12.45
2022-12-03T12:58:01.451Z,12.60
2022-12-03T13:00:28.161Z,11.15
2022-12-03T13:02:59.961Z,12.65
2022-12-03T13:05:38.450Z,14.82
2022-12-03T13:08:27.390Z,13.45
2022-12-03T13:10:55.838Z,13.70
2022-12-03T13:13:25.268Z,13.40
2022-12-03T13:16:11.056Z,13.18
2022-12-03T13:18:45.803Z,14.35
2022-12-03T13:21:42.445Z,13.70
2022-12-03T13:24:47.662Z,13.50
2022-12-03T13:27:17.433Z,12.65
2022-12-03T13:29:51.157Z,12.93
2022-12-03T13:32:27.503Z,13.63
2022-12-03T13:35:04.010Z,13.65
2022-12-03T13:37:31.661Z,12.73
2022-12-03T13:40:08.878Z,13.52
2022-12-03T13:42:40.449Z,15.00
2022-12-03T13:45:15.840Z,14.50
2022-12-03T13:47:47.091Z,15.63
2022-12-03T13:50:29.721Z,15.65
2022-12-03T13:52:56.953Z,14.30
2022-12-03T13:55:28.883Z,14.00
2022-12-03T13:57:56.144Z,15.48
2022-12-03T14:00:23.550Z,15.27
2022-12-03T14:02:50.232Z,14.70
2022-12-03T14:05:17.013Z,14.37
2022-12-03T14:07:43.716Z,14.60
2022-12-03T14:10:12.859Z,15.55
2022-12-03T14:12:39.515Z,15.43
2022-12-03T14:15:06.722Z,15.82
2022-12-03T14:17:33.328Z,15.05
2022-12-03T14:20:01.300Z,14.52
2022-12-03T14:22:28.187Z,16.50
2022-12-03T14:24:54.842Z,15.45
2022-12-03T14:27:24.615Z,16.05
2022-12-03T14:29:51.914Z,14.80
2022-12-03T14:32:19.041Z,14.10
2022-12-03T14:34:45.747Z,16.17
2022-12-03T14:37:12.834Z,14.90
2022-12-03T14:39:39.658Z,13.30
2022-12-03T14:42:16.418Z,15.77
2022-12-03T14:44:45.594Z,14.23
2022-12-03T14:47:13.453Z,14.55
2022-12-03T14:49:40.321Z,16.50
2022-12-03T14:52:11.335Z,16.43
2022-12-03T14:54:39.120Z,16.35
2022-12-03T14:57:05.787Z,17.08
2022-12-03T14:59:32.514Z,15.57
2022-12-03T15:01:59.415Z,14.90
2022-12-03T15:04:26.299Z,20.15
2022-12-03T15:06:53.038Z,16.80
2022-12-03T15:09:20.392Z,16.33
2022-12-03T15:11:47.034Z,15.38
2022-12-03T15:14:13.929Z,15.65
2022-12-03T15:16:40.596Z,14.05
2022-12-03T15:19:07.270Z,15.60
2022-12-03T15:21:34.857Z,16.92
2022-12-03T15:24:02.667Z,17.73
2022-12-03T15:26:29.739Z,17.05
2022-12-03T15:28:56.421Z,16.00
2022-12-03T15:31:23.286Z,15.27
2022-12-03T15:33:50.312Z,16.40
2022-12-03T15:36:17.028Z,15.50
2022-12-03T15:38:44.068Z,15.05
2022-12-03T15:41:29.447Z,15.40
2022-12-03T15:44:01.944Z,17.33
2022-12-03T15:46:29.479Z,15.35
2022-12-03T15:48:57.494Z,15.10
2022-12-03T15:51:25.092Z,15.65
2022-12-03T15:53:52.096Z,15.10
2022-12-03T15:56:18.833Z,15.77
2022-12-03T15:58:45.433Z,16.13
2022-12-03T16:01:13.545Z,15.45
2022-12-03T16:03:41.135Z,16.65
2022-12-03T16:06:07.972Z,16.60
2022-12-03T16:08:34.724Z,14.65
2022-12-03T16:11:01.402Z,15.77
2022-12-03T16:13:28.027Z,14.70
2022-12-03T16:15:54.728Z,15.82
2022-12-03T16:18:21.431Z,14.07
2022-12-03T16:20:48.149Z,16.42
2022-12-03T16:23:14.823Z,12.95
2022-12-03T16:25:41.430Z,14.80
2022-12-03T16:28:08.562Z,14.73
2022-12-03T16:30:36.242Z,14.60
2022-12-03T16:33:03.418Z,15.43
2022-12-03T16:35:30.165Z,15.23
2022-12-03T16:37:56.934Z,15.88
2022-12-03T16:40:23.548Z,15.20
2022-12-03T16:42:50.186Z,14.10
2022-12-03T16:45:33.273Z,15.45
2022-12-03T16:48:01.727Z,16.48
2022-12-03T16:50:30.158Z,14.45
2022-12-03T16:52:57.676Z,15.52
2022-12-03T16:55:24.713Z,14.57
2022-12-03T16:57:51.311Z,15.73
2022-12-03T17:00:18.252Z,16.55
2022-12-03T17:02:45.094Z,32.17
2022-12-03T17:05:12.115Z,28.70
2022-12-03T17:07:38.860Z,26.58
2022-12-03T17:10:06.199Z,18.90
2022-12-03T17:13:00.664Z,18.13
2022-12-03T17:15:19.459Z,32.05
2022-12-03T17:17:46.155Z,25.75
2022-12-03T17:20:14.511Z,20.27
2022-12-03T17:22:41.663Z,26.98
2022-12-03T17:25:08.911Z,22.70
2022-12-03T17:27:37.024Z,25.40
2022-12-03T17:30:06.057Z,29.13
2022-12-03T17:32:32.888Z,20.80
2022-12-03T17:34:59.589Z,27.95
2022-12-03T17:37:26.213Z,25.13
2022-12-03T17:39:53.120Z,17.65
2022-12-03T17:42:19.883Z,23.25
2022-12-03T17:44:46.497Z,21.45
2022-12-03T17:47:13.179Z,20.17
2022-12-03T17:49:40.200Z,16.10
2022-12-03T17:52:06.842Z,18.98
2022-12-03T17:54:55.309Z,16.80
2022-12-03T17:57:20.139Z,17.08
2022-12-03T17:59:46.764Z,16.17
2022-12-03T18:02:13.777Z,16.35
2022-12-03T18:04:40.576Z,15.95
2022-12-03T18:07:07.406Z,23.17
2022-12-03T18:09:34.490Z,16.02
2022-12-03T18:12:01.245Z,15.57
2022-12-03T18:14:27.873Z,16.75
2022-12-03T18:16:54.589Z,18.45
2022-12-03T18:19:21.264Z,18.80
2022-12-03T18:21:48.093Z,19.77
2022-12-03T18:24:14.999Z,25.20
2022-12-03T18:26:42.592Z,15.95
2022-12-03T18:29:09.271Z,16.90
2022-12-03T18:31:35.960Z,17.98
2022-12-03T18:34:02.641Z,17.85
2022-12-03T18:36:33.440Z,16.20
2022-12-03T18:39:00.946Z,14.73
2022-12-03T18:41:27.890Z,16.85
2022-12-03T18:43:55.010Z,15.98
2022-12-03T18:49:10.096Z,14.70
2022-12-03T18:51:37.240Z,14.45
2022-12-03T18:54:04.213Z,16.25
2022-12-03T18:56:30.833Z,16.50
2022-12-03T18:58:57.859Z,15.07
2022-12-03T19:01:24.566Z,14.80
2022-12-03T19:03:53.402Z,15.98
2022-12-03T19:06:21.144Z,15.80
2022-12-03T19:08:49.276Z,15.30
2022-12-03T19:11:15.926Z,15.40
2022-12-03T19:13:42.986Z,15.98
2022-12-03T19:16:11.917Z,15.75
2022-12-03T19:18:39.177Z,15.95
2022-12-03T19:21:11.500Z,15.40
2022-12-03T19:23:38.191Z,14.88
2022-12-03T19:26:06.988Z,14.15
2022-12-03T19:28:34.396Z,14.70
2022-12-03T19:31:14.293Z,13.50
2022-12-03T19:33:42.521Z,14.35
2022-12-03T19:36:19.663Z,12.75
2022-12-03T19:38:52.173Z,12.85
2022-12-03T19:41:27.278Z,14.55
2022-12-03T19:43:56.351Z,14.15
2022-12-03T19:46:25.082Z,14.25
2022-12-03T19:48:53.232Z,15.38
2022-12-03T19:51:34.213Z,15.95
2022-12-03T19:54:06.036Z,16.70
2022-12-03T19:56:32.775Z,13.65
2022-12-03T19:58:59.446Z,14.27
2022-12-03T20:01:30.274Z,15.65
2022-12-03T20:03:58.316Z,14.00
2022-12-03T20:06:27.840Z,13.82
2022-12-03T20:09:04.352Z,16.52
2022-12-03T20:11:33.146Z,15.07
2022-12-03T20:14:02.984Z,15.45
2022-12-03T20:16:29.877Z,13.57
2022-12-03T20:19:01.709Z,16.00
2022-12-03T20:21:31.393Z,16.60
2022-12-03T20:23:58.769Z,18.40
2022-12-03T20:26:25.473Z,16.10
2022-12-03T20:28:55.400Z,16.13
2022-12-03T20:31:24.329Z,17.13
2022-12-03T20:33:53.885Z,13.65
2022-12-03T20:36:22.484Z,14.48
2022-12-03T20:38:53.111Z,14.30
2022-12-03T20:41:19.802Z,14.85
2022-12-03T20:43:46.593Z,14.57
2022-12-03T20:46:14.756Z,15.13
2022-12-03T20:48:42.404Z,14.77
2022-12-03T20:51:14.966Z,15.98
2022-12-03T20:53:42.049Z,16.35
2022-12-03T20:56:15.789Z,15.65
2022-12-03T20:58:42.401Z,15.00
2022-12-03T21:01:16.131Z,15.50
2022-12-03T21:03:43.895Z,14.90
2022-12-03T21:06:11.172Z,14.73
2022-12-03T21:08:42.612Z,16.02
2022-12-03T21:11:30.594Z,14.55
2022-12-03T21:13:58.270Z,14.43
2022-12-03T21:16:51.879Z,14.57
2022-12-03T21:19:17.039Z,13.98
2022-12-03T21:21:43.740Z,12.98
2022-12-03T21:24:12.145Z,13.23
2022-12-03T21:26:38.835Z,13.13
2022-12-03T21:29:05.457Z,15.85
2022-12-03T21:31:32.403Z,15.65
2022-12-03T21:33:59.229Z,15.07
2022-12-03T21:36:26.062Z,14.50
2022-12-03T21:38:52.767Z,13.48
2022-12-03T21:41:19.413Z,12.43
2022-12-03T21:43:46.350Z,13.23
2022-12-03T21:47:11.701Z,13.75
2022-12-03T21:49:01.883Z,14.18
2022-12-03T21:51:28.623Z,13.43
2022-12-03T21:53:55.236Z,14.48
2022-12-03T21:56:21.889Z,14.73
2022-12-03T21:58:48.658Z,15.13
2022-12-03T22:01:17.680Z,14.45
2022-12-03T22:03:44.915Z,13.75
2022-12-03T22:06:11.665Z,15.00
2022-12-03T22:08:38.701Z,13.07
2022-12-03T22:11:13.327Z,13.98
2022-12-03T22:13:40.762Z,14.00
2022-12-03T22:16:10.017Z,14.23
2022-12-03T22:18:36.977Z,14.02
2022-12-03T22:21:05.652Z,12.80
2022-12-03T22:23:32.918Z,15.13
2022-12-03T22:26:03.418Z,15.10
2022-12-03T22:28:30.585Z,16.02
2022-12-03T22:30:57.474Z,14.75
2022-12-03T22:33:24.516Z,14.07
2022-12-03T22:35:55.918Z,13.15
2022-12-03T22:38:22.660Z,14.05
2022-12-03T22:40:49.282Z,13.30
2022-12-03T22:43:16.283Z,14.55
2022-12-03T22:45:42.894Z,13.60
2022-12-03T22:48:09.633Z,13.23
2022-12-03T22:50:43.106Z,13.57
2022-12-03T22:53:09.839Z,13.52
2022-12-03T22:55:36.455Z,13.25
2022-12-03T22:58:04.193Z,13.32
2022-12-03T23:00:34.401Z,13.32
2022-12-03T23:03:01.182Z,15.23
2022-12-03T23:05:32.556Z,15.00
2022-12-03T23:07:59.247Z,14.07
2022-12-03T23:10:30.929Z,12.90
2022-12-03T23:12:59.207Z,13.70
2022-12-03T23:15:25.849Z,14.52
2022-12-03T23:17:52.468Z,14.20
2022-12-03T23:20:19.124Z,13.20
2022-12-03T23:22:45.809Z,15.50
2022-12-03T23:25:12.473Z,14.85
2022-12-03T23:27:39.080Z,14.25
2022-12-03T23:30:07.810Z,12.75
2022-12-03T23:32:37.533Z,14.20
2022-12-03T23:35:05.234Z,14.80
2022-12-03T23:37:31.858Z,14.27
2022-12-03T23:39:58.469Z,11.93
2022-12-03T23:42:25.085Z,14.45
2022-12-03T23:44:51.767Z,13.30
2022-12-03T23:47:18.396Z,12.88
2022-12-03T23:49:45.043Z,13.52
2022-12-03T23:52:11.919Z,14.52
2022-12-03T23:54:38.544Z,14.25
2022-12-03T23:57:05.202Z,13.75
2022-12-03T23:59:31.894Z,13.80
